createdAt,value
2023-04-13T00:01:37.049Z,10.24
2023-04-13T00:04:10.059Z,10.24
2023-04-13T00:06:47.020Z,10.25
2023-04-13T00:09:20.065Z,10.27
2023-04-13T00:11:52.785Z,10.28
2023-04-13T00:14:27.640Z,10.29
2023-04-13T00:17:00.446Z,10.27
2023-04-13T00:19:33.465Z,10.30
2023-04-13T00:22:09.710Z,10.31
2023-04-13T00:24:44.144Z,10.29
2023-04-13T00:27:16.853Z,10.29
2023-04-13T00:29:50.091Z,10.31
2023-04-13T00:32:22.753Z,10.34
2023-04-13T00:34:55.413Z,10.35
2023-04-13T00:37:30.445Z,10.38
2023-04-13T00:40:03.681Z,10.42
2023-04-13T00:42:36.666Z,10.44
2023-04-13T00:45:09.742Z,10.47
2023-04-13T00:47:43.372Z,10.50
2023-04-13T00:50:17.780Z,10.54
2023-04-13T00:52:51.884Z,10.56
2023-04-13T00:55:25.176Z,10.59
2023-04-13T00:57:59.428Z,10.60
2023-04-13T01:00:32.315Z,10.62
2023-04-13T01:03:05.180Z,10.63
2023-04-13T01:05:41.324Z,10.65
2023-04-13T01:08:19.419Z,10.62
2023-04-13T01:10:55.316Z,10.61
2023-04-13T01:13:32.085Z,10.55
2023-04-13T01:16:07.687Z,10.50
2023-04-13T01:18:41.776Z,10.45
2023-04-13T01:21:16.210Z,10.38
2023-04-13T01:23:57.777Z,10.35
2023-04-13T01:26:37.158Z,10.28
2023-04-13T01:29:11.301Z,10.21
2023-04-13T01:31:44.328Z,10.18
2023-04-13T01:34:17.112Z,10.13
2023-04-13T01:36:49.772Z,10.11
2023-04-13T01:39:25.515Z,10.09
2023-04-13T01:41:58.412Z,10.10
2023-04-13T01:44:34.870Z,10.10
2023-04-13T01:47:16.537Z,10.09
2023-04-13T01:49:52.510Z,10.11
2023-04-13T01:52:27.919Z,10.13
2023-04-13T01:55:01.716Z,10.14
2023-04-13T01:57:36.161Z,10.17
2023-04-13T02:00:14.466Z,10.17
2023-04-13T02:02:47.381Z,10.18
2023-04-13T02:05:20.197Z,10.18
2023-04-13T02:07:52.885Z,10.21
2023-04-13T02:10:26.467Z,10.23
2023-04-13T02:12:59.413Z,10.25
2023-04-13T02:15:35.546Z,10.26
2023-04-13T02:18:08.556Z,10.28
2023-04-13T02:20:44.753Z,10.27
2023-04-13T02:23:18.014Z,10.28
2023-04-13T02:25:50.749Z,10.28
2023-04-13T02:28:24.004Z,10.29
2023-04-13T02:30:59.840Z,10.28
2023-04-13T02:33:33.058Z,10.28
2023-04-13T02:36:06.774Z,10.29
2023-04-13T02:38:39.507Z,10.28
2023-04-13T02:41:12.570Z,10.29
2023-04-13T02:43:45.433Z,10.31
2023-04-13T02:46:19.514Z,10.30
2023-04-13T02:48:52.543Z,10.29
2023-04-13T02:51:25.209Z,10.30
2023-04-13T02:53:58.834Z,10.31
2023-04-13T02:56:31.860Z,10.33
2023-04-13T02:59:06.475Z,10.35
2023-04-13T03:01:42.256Z,10.36
2023-04-13T03:04:15.142Z,10.36
2023-04-13T03:06:49.038Z,10.34
2023-04-13T03:09:21.805Z,10.35
2023-04-13T03:11:56.252Z,10.36
2023-04-13T03:14:30.177Z,10.34
2023-04-13T03:17:04.978Z,10.34
2023-04-13T03:19:37.806Z,10.34
2023-04-13T03:22:11.271Z,10.35
2023-04-13T03:24:44.100Z,10.33
2023-04-13T03:27:17.310Z,10.31
2023-04-13T03:29:49.984Z,10.30
2023-04-13T03:32:24.194Z,10.28
2023-04-13T03:34:56.996Z,10.28
2023-04-13T03:37:32.454Z,10.26
2023-04-13T03:40:05.709Z,10.23
2023-04-13T03:42:38.473Z,10.24
2023-04-13T03:45:11.778Z,10.24
2023-04-13T03:47:46.050Z,10.24
2023-04-13T03:50:19.359Z,10.23
2023-04-13T03:52:52.198Z,10.23
2023-04-13T03:55:24.975Z,10.25
2023-04-13T03:57:57.755Z,10.25
2023-04-13T04:00:30.431Z,10.25
2023-04-13T04:03:04.570Z,10.27
2023-04-13T04:05:38.886Z,10.28
2023-04-13T04:08:11.670Z,10.28
2023-04-13T04:10:44.422Z,10.30
2023-04-13T04:13:17.023Z,10.30
2023-04-13T04:15:49.806Z,10.30
2023-04-13T04:18:24.508Z,10.30
2023-04-13T04:20:57.332Z,10.30
2023-04-13T04:23:30.083Z,10.28
2023-04-13T04:26:03.190Z,10.27
2023-04-13T04:28:38.670Z,10.25
2023-04-13T04:31:11.785Z,10.21
2023-04-13T04:33:47.036Z,10.19
2023-04-13T04:36:21.020Z,10.17
2023-04-13T04:38:58.061Z,10.14
2023-04-13T04:41:31.476Z,10.13
2023-04-13T04:44:04.594Z,10.10
2023-04-13T04:46:38.851Z,10.09
2023-04-13T04:49:13.321Z,10.07
2023-04-13T04:51:46.074Z,10.07
2023-04-13T04:54:19.801Z,10.06
2023-04-13T04:56:52.689Z,10.04
2023-04-13T04:59:25.513Z,10.02
2023-04-13T05:01:58.238Z,10.02
2023-04-13T05:04:33.530Z,10.00
2023-04-13T05:07:06.212Z,9.99
2023-04-13T05:09:39.120Z,9.96
2023-04-13T05:12:11.929Z,9.94
2023-04-13T05:14:48.174Z,9.95
2023-04-13T05:17:20.905Z,9.93
2023-04-13T05:19:54.933Z,9.92
2023-04-13T05:22:27.756Z,9.92
2023-04-13T05:25:00.507Z,9.93
2023-04-13T05:27:33.378Z,9.95
2023-04-13T05:30:06.628Z,9.97
2023-04-13T05:32:39.349Z,9.99
2023-04-13T05:35:13.604Z,10.02
2023-04-13T05:37:46.848Z,10.06
2023-04-13T05:40:19.497Z,10.10
2023-04-13T05:42:52.117Z,10.14
2023-04-13T05:45:24.799Z,10.20
2023-04-13T05:47:57.618Z,10.25
2023-04-13T05:50:32.131Z,10.27
2023-04-13T05:53:05.832Z,10.31
2023-04-13T05:55:39.129Z,10.37
2023-04-13T05:58:12.161Z,10.39
2023-04-13T06:00:44.946Z,10.45
2023-04-13T06:03:20.609Z,10.47
2023-04-13T06:05:54.847Z,10.53
2023-04-13T06:08:32.742Z,10.59
2023-04-13T06:11:06.552Z,10.64
2023-04-13T06:13:41.236Z,10.69
2023-04-13T06:16:13.976Z,10.75
2023-04-13T06:18:46.975Z,10.84
2023-04-13T06:21:21.534Z,10.90
2023-04-13T06:23:54.415Z,10.94
2023-04-13T06:26:28.353Z,11.00
2023-04-13T06:29:02.660Z,11.05
2023-04-13T06:31:35.499Z,11.08
2023-04-13T06:34:08.561Z,11.10
2023-04-13T06:36:43.033Z,11.14
2023-04-13T06:39:15.893Z,11.16
2023-04-13T06:41:49.018Z,11.19
2023-04-13T06:44:21.710Z,11.22
2023-04-13T06:46:54.541Z,11.22
2023-04-13T06:49:28.156Z,11.23
2023-04-13T06:52:02.343Z,11.24
2023-04-13T06:54:36.151Z,11.25
2023-04-13T06:57:08.827Z,11.22
2023-04-13T06:59:41.506Z,11.18
2023-04-13T07:02:14.222Z,11.15
2023-04-13T07:04:47.127Z,11.13
2023-04-13T07:07:21.726Z,11.09
2023-04-13T07:09:54.414Z,11.07
2023-04-13T07:12:27.494Z,11.07
2023-04-13T07:15:00.861Z,11.11
2023-04-13T07:17:33.900Z,11.14
2023-04-13T07:20:07.909Z,11.20
2023-04-13T07:22:42.720Z,11.27
2023-04-13T07:25:15.857Z,11.38
2023-04-13T07:27:48.503Z,11.48
2023-04-13T07:30:21.523Z,11.60
2023-04-13T07:32:54.272Z,11.71
2023-04-13T07:35:27.139Z,11.86
2023-04-13T07:38:01.438Z,11.99
2023-04-13T07:40:35.867Z,12.12
2023-04-13T07:43:08.515Z,12.25
2023-04-13T07:45:41.227Z,12.37
2023-04-13T07:48:13.916Z,12.51
2023-04-13T07:50:46.911Z,12.65
2023-04-13T07:53:21.107Z,12.79
2023-04-13T07:55:53.875Z,12.94
2023-04-13T07:58:27.289Z,13.08
2023-04-13T08:01:00.027Z,13.25
2023-04-13T08:03:33.057Z,13.42
2023-04-13T08:06:07.568Z,13.58
2023-04-13T08:08:41.878Z,13.75
2023-04-13T08:11:14.655Z,13.92
2023-04-13T08:13:47.478Z,14.10
2023-04-13T08:16:20.222Z,14.27
2023-04-13T08:18:53.102Z,14.45
2023-04-13T08:21:26.630Z,14.59
2023-04-13T08:24:01.425Z,14.72
2023-04-13T08:26:34.075Z,14.84
2023-04-13T08:29:06.688Z,14.96
2023-04-13T08:31:40.737Z,15.03
2023-04-13T08:34:14.202Z,15.13
2023-04-13T08:36:47.901Z,15.17
2023-04-13T08:39:22.191Z,15.24
2023-04-13T08:41:55.072Z,15.25
2023-04-13T08:44:28.460Z,15.27
2023-04-13T08:47:01.531Z,15.26
2023-04-13T08:49:35.219Z,15.28
2023-04-13T08:52:09.047Z,15.26
2023-04-13T08:54:43.225Z,15.28
2023-04-13T08:57:16.967Z,15.28
2023-04-13T08:59:51.720Z,15.30
2023-04-13T09:02:26.550Z,15.32
2023-04-13T09:05:01.007Z,15.35
2023-04-13T09:07:36.827Z,15.37
2023-04-13T09:10:11.839Z,15.36
2023-04-13T09:12:44.474Z,15.32
2023-04-13T09:15:17.085Z,15.28
2023-04-13T09:17:50.681Z,15.22
2023-04-13T09:20:24.512Z,15.13
2023-04-13T09:22:57.504Z,15.07
2023-04-13T09:25:31.708Z,15.03
2023-04-13T09:28:08.735Z,15.00
2023-04-13T09:30:41.479Z,15.01
2023-04-13T09:33:15.922Z,15.04
2023-04-13T09:35:48.657Z,15.13
2023-04-13T09:38:31.237Z,15.22
2023-04-13T09:41:05.321Z,15.34
2023-04-13T09:43:38.671Z,15.46
2023-04-13T09:46:14.999Z,15.61
2023-04-13T09:48:48.415Z,15.77
2023-04-13T09:51:21.109Z,15.91
2023-04-13T09:53:54.617Z,16.04
2023-04-13T09:56:29.031Z,16.14
2023-04-13T09:59:01.919Z,16.23
2023-04-13T10:01:35.594Z,16.29
2023-04-13T10:04:09.961Z,16.33
2023-04-13T10:06:44.892Z,16.37
2023-04-13T10:09:17.688Z,16.41
2023-04-13T10:11:52.525Z,16.46
2023-04-13T10:14:27.061Z,16.50
2023-04-13T10:17:08.430Z,16.54
2023-04-13T10:19:43.553Z,16.60
2023-04-13T10:22:17.279Z,16.64
2023-04-13T10:24:50.423Z,16.68
2023-04-13T10:27:24.645Z,16.70
2023-04-13T10:29:57.731Z,16.71
2023-04-13T10:32:32.184Z,16.69
2023-04-13T10:35:10.157Z,16.67
2023-04-13T10:37:45.622Z,16.68
2023-04-13T10:40:18.571Z,16.71
2023-04-13T10:42:53.342Z,16.80
2023-04-13T10:45:28.282Z,16.93
2023-04-13T10:48:01.109Z,17.10
2023-04-13T10:50:34.016Z,17.26
2023-04-13T10:53:07.843Z,17.40
2023-04-13T10:55:40.681Z,17.56
2023-04-13T10:58:17.337Z,17.67
2023-04-13T11:00:50.984Z,17.79
2023-04-13T11:03:23.702Z,17.88
2023-04-13T11:05:57.823Z,17.95
2023-04-13T11:08:30.655Z,18.03
2023-04-13T11:11:03.469Z,18.08
2023-04-13T11:13:45.109Z,18.12
2023-04-13T11:16:17.861Z,18.18
2023-04-13T11:18:50.529Z,18.22
2023-04-13T11:21:23.213Z,18.25
2023-04-13T11:24:01.877Z,18.27
2023-04-13T11:26:35.080Z,18.29
2023-04-13T11:29:18.410Z,18.30
2023-04-13T11:31:51.230Z,18.31
2023-04-13T11:34:25.794Z,18.30
2023-04-13T11:37:02.358Z,18.31
2023-04-13T11:39:36.269Z,18.31
2023-04-13T11:42:09.219Z,18.32
2023-04-13T11:44:45.687Z,18.35
2023-04-13T11:47:19.114Z,18.38
2023-04-13T11:49:51.938Z,18.41
2023-04-13T11:52:24.883Z,18.41
2023-04-13T11:55:00.667Z,18.38
2023-04-13T11:57:41.122Z,18.33
2023-04-13T12:00:20.170Z,18.26
2023-04-13T12:03:01.803Z,18.19
2023-04-13T12:05:36.046Z,18.07
2023-04-13T12:08:09.854Z,17.94
2023-04-13T12:10:51.823Z,17.81
2023-04-13T12:13:52.301Z,17.65
2023-04-13T12:19:16.628Z,17.34
2023-04-13T12:21:55.866Z,17.21
2023-04-13T12:24:33.052Z,17.10
2023-04-13T12:29:41.870Z,17.02
2023-04-13T12:32:16.159Z,17.06
2023-04-13T12:34:49.110Z,17.10
2023-04-13T12:37:21.732Z,17.09
2023-04-13T12:39:54.452Z,17.06
2023-04-13T12:42:27.069Z,16.96
2023-04-13T12:44:59.793Z,16.83
2023-04-13T12:47:33.830Z,16.63
2023-04-13T12:50:08.108Z,16.43
2023-04-13T12:52:42.573Z,16.21
2023-04-13T12:55:15.673Z,15.99
2023-04-13T12:57:48.284Z,15.75
2023-04-13T13:00:21.526Z,15.54
2023-04-13T13:03:06.472Z,15.31
2023-04-13T13:05:45.394Z,15.05
2023-04-13T13:08:18.041Z,14.82
2023-04-13T13:10:50.775Z,14.60
2023-04-13T13:13:23.422Z,14.39
2023-04-13T13:15:56.094Z,14.25
2023-04-13T13:18:35.426Z,14.17
2023-04-13T13:21:20.145Z,14.10
2023-04-13T13:23:52.798Z,14.12
2023-04-13T13:26:30.326Z,14.17
2023-04-13T13:29:08.217Z,14.20
2023-04-13T13:31:41.554Z,14.26
2023-04-13T13:34:15.677Z,14.35
2023-04-13T13:36:48.535Z,14.43
2023-04-13T13:39:22.448Z,14.52
2023-04-13T13:41:55.064Z,14.62
2023-04-13T13:44:27.804Z,14.72
2023-04-13T13:47:01.340Z,14.87
2023-04-13T13:49:35.384Z,14.96
2023-04-13T13:52:08.258Z,15.10
2023-04-13T13:54:41.360Z,15.21
2023-04-13T13:57:14.038Z,15.32
2023-04-13T13:59:49.174Z,15.44
2023-04-13T14:02:22.370Z,15.57
2023-04-13T14:04:56.620Z,15.66
2023-04-13T14:07:29.328Z,15.76
2023-04-13T14:10:01.993Z,15.85
2023-04-13T14:12:34.789Z,15.95
2023-04-13T14:15:08.018Z,16.03
2023-04-13T14:17:41.271Z,16.12
2023-04-13T14:20:16.002Z,16.22
2023-04-13T14:22:48.663Z,16.32
2023-04-13T14:25:21.974Z,16.44
2023-04-13T14:27:54.645Z,16.56
2023-04-13T14:30:28.303Z,16.66
2023-04-13T14:33:01.414Z,16.77
2023-04-13T14:35:35.665Z,16.86
2023-04-13T14:38:09.810Z,16.93
2023-04-13T14:40:42.456Z,17.01
2023-04-13T14:43:16.023Z,17.09
2023-04-13T14:45:48.660Z,17.17
2023-04-13T14:48:21.800Z,17.23
2023-04-13T14:50:55.963Z,17.25
2023-04-13T14:53:28.599Z,17.27
2023-04-13T14:56:01.393Z,17.25
2023-04-13T14:58:34.172Z,17.21
2023-04-13T15:01:16.237Z,17.14
2023-04-13T15:03:49.412Z,17.03
2023-04-13T15:06:25.329Z,16.91
2023-04-13T15:08:58.253Z,16.83
2023-04-13T15:11:31.262Z,16.73
2023-04-13T15:14:03.980Z,16.64
2023-04-13T15:16:37.210Z,16.56
2023-04-13T15:19:09.944Z,16.44
2023-04-13T15:21:44.034Z,16.29
2023-04-13T15:24:16.872Z,16.13
2023-04-13T15:26:50.267Z,15.87
2023-04-13T15:29:25.088Z,15.57
2023-04-13T15:31:59.397Z,15.24
2023-04-13T15:34:32.117Z,14.88
2023-04-13T15:37:06.201Z,14.52
2023-04-13T15:39:38.898Z,14.16
2023-04-13T15:42:11.875Z,13.82
2023-04-13T15:44:44.592Z,13.49
2023-04-13T15:47:17.411Z,13.17
2023-04-13T15:49:50.165Z,12.87
2023-04-13T15:52:24.354Z,12.61
2023-04-13T15:54:57.174Z,12.31
2023-04-13T15:57:29.921Z,12.05
2023-04-13T16:00:02.828Z,11.83
2023-04-13T16:02:35.899Z,11.62
2023-04-13T16:05:09.580Z,11.42
2023-04-13T16:07:43.691Z,11.22
2023-04-13T16:10:16.921Z,11.05
2023-04-13T16:12:50.274Z,10.84
2023-04-13T16:15:24.452Z,10.69
2023-04-13T16:17:57.329Z,10.57
2023-04-13T16:20:30.480Z,10.46
2023-04-13T16:23:05.850Z,10.38
2023-04-13T16:25:39.051Z,10.30
2023-04-13T16:28:11.858Z,10.24
2023-04-13T16:30:44.697Z,10.15
2023-04-13T16:33:17.597Z,10.10
2023-04-13T16:35:50.892Z,10.07
2023-04-13T16:38:25.005Z,10.02
2023-04-13T16:40:57.752Z,9.98
2023-04-13T16:43:30.460Z,9.96
2023-04-13T16:46:03.299Z,9.92
2023-04-13T16:48:35.952Z,9.90
2023-04-13T16:51:08.696Z,9.88
2023-04-13T16:53:44.270Z,9.87
2023-04-13T16:56:17.302Z,9.83
2023-04-13T16:58:50.461Z,9.79
2023-04-13T17:01:25.136Z,9.76
2023-04-13T17:03:58.069Z,9.74
2023-04-13T17:06:31.790Z,9.71
2023-04-13T17:09:06.132Z,9.66
2023-04-13T17:11:38.909Z,9.62
2023-04-13T17:14:11.665Z,9.58
2023-04-13T17:16:44.931Z,9.52
2023-04-13T17:19:19.035Z,9.48
2023-04-13T17:21:52.771Z,9.43
2023-04-13T17:24:27.021Z,9.39
2023-04-13T17:27:00.156Z,9.34
2023-04-13T17:29:35.943Z,9.32
2023-04-13T17:32:08.836Z,9.28
2023-04-13T17:34:41.787Z,9.25
2023-04-13T17:37:14.496Z,9.21
2023-04-13T17:39:51.243Z,9.20
2023-04-13T17:42:24.357Z,9.16
2023-04-13T17:44:58.538Z,9.14
2023-04-13T17:47:31.590Z,9.12
2023-04-13T17:50:04.935Z,9.11
2023-04-13T17:52:37.632Z,9.09
2023-04-13T17:55:13.585Z,9.10
2023-04-13T17:57:46.317Z,9.08
2023-04-13T18:00:19.358Z,9.10
2023-04-13T18:02:52.485Z,9.09
2023-04-13T18:05:25.852Z,9.12
2023-04-13T18:07:58.897Z,9.12
2023-04-13T18:10:32.960Z,9.11
2023-04-13T18:13:05.919Z,9.11
2023-04-13T18:15:38.654Z,9.10
2023-04-13T18:18:11.585Z,9.11
2023-04-13T18:20:45.285Z,9.11
2023-04-13T18:23:17.966Z,9.09
2023-04-13T18:25:52.650Z,9.08
2023-04-13T18:28:25.344Z,9.09
2023-04-13T18:30:59.855Z,9.07
2023-04-13T18:33:32.591Z,9.06
2023-04-13T18:36:05.595Z,9.04
2023-04-13T18:38:38.371Z,9.04
2023-04-13T18:41:12.731Z,9.01
2023-04-13T18:43:45.454Z,8.98
2023-04-13T18:46:18.267Z,8.97
2023-04-13T18:48:51.319Z,8.95
2023-04-13T18:51:23.975Z,8.90
2023-04-13T18:53:57.576Z,8.85
2023-04-13T18:56:31.923Z,8.80
2023-04-13T18:59:05.036Z,8.76
2023-04-13T19:01:38.239Z,8.70
2023-04-13T19:04:11.114Z,8.66
2023-04-13T19:06:44.015Z,8.63
2023-04-13T19:09:16.769Z,8.61
2023-04-13T19:11:51.511Z,8.59
2023-04-13T19:14:24.271Z,8.56
2023-04-13T19:16:57.479Z,8.55
2023-04-13T19:19:30.449Z,8.55
2023-04-13T19:22:03.268Z,8.53
2023-04-13T19:24:36.790Z,8.52
2023-04-13T19:27:10.981Z,8.49
2023-04-13T19:29:44.280Z,8.48
2023-04-13T19:32:17.345Z,8.44
2023-04-13T19:34:50.876Z,8.41
2023-04-13T19:37:23.581Z,8.36
2023-04-13T19:39:56.518Z,8.31
2023-04-13T19:42:31.408Z,8.28
2023-04-13T19:45:04.261Z,8.24
2023-04-13T19:47:37.436Z,8.18
2023-04-13T19:50:11.296Z,8.14
2023-04-13T19:52:47.163Z,8.11
2023-04-13T19:55:20.891Z,8.10
2023-04-13T19:57:55.491Z,8.07
2023-04-13T20:00:29.662Z,8.04
2023-04-13T20:03:04.493Z,8.04
2023-04-13T20:05:38.339Z,8.02
2023-04-13T20:08:11.602Z,8.04
2023-04-13T20:10:44.955Z,8.05
2023-04-13T20:13:19.732Z,8.04
2023-04-13T20:15:52.503Z,8.05
2023-04-13T20:18:25.679Z,8.05
2023-04-13T20:21:00.805Z,8.06
2023-04-13T20:23:34.570Z,8.07
2023-04-13T20:26:07.596Z,8.07
2023-04-13T20:28:41.952Z,8.09
2023-04-13T20:31:16.061Z,8.12
2023-04-13T20:33:49.363Z,8.14
2023-04-13T20:36:24.691Z,8.13
2023-04-13T20:38:59.454Z,8.15
2023-04-13T20:41:33.086Z,8.16
2023-04-13T20:44:10.035Z,8.18
2023-04-13T20:46:49.795Z,8.18
2023-04-13T20:49:25.934Z,8.19
2023-04-13T20:52:02.293Z,8.20
2023-04-13T20:54:35.429Z,8.20
2023-04-13T20:57:09.285Z,8.21
2023-04-13T20:59:43.770Z,8.22
2023-04-13T21:02:16.943Z,8.21
2023-04-13T21:04:49.892Z,8.23
2023-04-13T21:07:23.209Z,8.21
2023-04-13T21:09:55.866Z,8.20
2023-04-13T21:12:30.480Z,8.18
2023-04-13T21:15:04.870Z,8.17
2023-04-13T21:17:38.323Z,8.18
2023-04-13T21:20:11.780Z,8.17
2023-04-13T21:22:44.856Z,8.16
2023-04-13T21:25:17.626Z,8.13
2023-04-13T21:27:50.416Z,8.13
2023-04-13T21:30:24.533Z,8.10
2023-04-13T21:32:57.452Z,8.08
2023-04-13T21:35:30.255Z,8.07
2023-04-13T21:38:05.573Z,8.04
2023-04-13T21:40:38.412Z,7.99
2023-04-13T21:43:11.547Z,7.95
2023-04-13T21:45:45.790Z,7.90
2023-04-13T21:48:18.921Z,7.86
2023-04-13T21:50:52.163Z,7.81
2023-04-13T21:53:25.440Z,7.77
2023-04-13T21:55:58.131Z,7.69
2023-04-13T21:58:38.412Z,7.65
2023-04-13T22:01:13.725Z,7.58
2023-04-13T22:03:47.443Z,7.54
2023-04-13T22:06:20.694Z,7.47
2023-04-13T22:08:54.871Z,7.41
2023-04-13T22:11:27.669Z,7.38
2023-04-13T22:14:01.697Z,7.32
2023-04-13T22:16:35.871Z,7.26
2023-04-13T22:19:08.971Z,7.23
2023-04-13T22:21:41.905Z,7.19
2023-04-13T22:24:16.136Z,7.17
2023-04-13T22:26:49.317Z,7.17
2023-04-13T22:29:22.053Z,7.14
2023-04-13T22:31:56.202Z,7.14
2023-04-13T22:34:29.230Z,7.13
2023-04-13T22:37:01.918Z,7.13
2023-04-13T22:39:34.798Z,7.10
2023-04-13T22:42:07.709Z,7.08
2023-04-13T22:44:40.469Z,7.05
2023-04-13T22:47:14.637Z,7.02
2023-04-13T22:49:47.370Z,7.00
2023-04-13T22:52:20.258Z,7.00
2023-04-13T22:54:53.570Z,6.95
2023-04-13T22:57:26.463Z,6.94
2023-04-13T22:59:59.494Z,6.95
2023-04-13T23:02:34.192Z,6.93
2023-04-13T23:05:07.820Z,6.92
2023-04-13T23:07:40.771Z,6.93
2023-04-13T23:10:15.274Z,6.93
2023-04-13T23:12:49.196Z,6.93
2023-04-13T23:15:21.988Z,6.94
2023-04-13T23:17:56.329Z,6.96
2023-04-13T23:20:29.579Z,6.98
2023-04-13T23:23:02.629Z,6.97
2023-04-13T23:25:35.935Z,7.01
2023-04-13T23:28:09.042Z,7.04
2023-04-13T23:30:42.240Z,7.06
2023-04-13T23:33:17.001Z,7.11
2023-04-13T23:35:52.664Z,7.15
2023-04-13T23:38:25.542Z,7.17
2023-04-13T23:40:58.737Z,7.21
2023-04-13T23:43:32.755Z,7.24
2023-04-13T23:46:05.870Z,7.30
2023-04-13T23:48:39.962Z,7.31
2023-04-13T23:51:12.655Z,7.33
2023-04-13T23:53:45.394Z,7.35
2023-04-13T23:56:18.106Z,7.36
2023-04-13T23:58:51.033Z,7.37
